Time;durP1;ratioP1;P1;durP2;ratioP2;P2;SDS_P1;SDS_P2;PMS_P1;PMS_P2;Temp;Humidity;BMP_temperature;BMP_pressure;BME280_temperature;BME280_humidity;BME280_pressure;Samples;Min_cycle;Max_cycle;Signal;HPM_P1;HPM_P2
2022/12/04 00:00:03;;;;;;;4.50;2.10;;;;;;;2.57;100.00;92228.41;5072865;28;20032;-77
2022/12/04 00:02:30;;;;;;;18.80;2.72;;;;;;;2.50;100.00;92219.06;5089104;28;20048;-77
2022/12/04 00:04:55;;;;;;;5.30;2.55;;;;;;;2.48;100.00;92222.91;5081776;28;20040;-77
2022/12/04 00:07:21;;;;;;;6.43;2.50;;;;;;;2.44;100.00;92219.25;5084941;28;20030;-77
2022/12/04 00:09:46;;;;;;;4.18;1.77;;;;;;;2.43;100.00;92217.66;5090456;28;20036;-77
2022/12/04 00:12:12;;;;;;;3.58;2.00;;;;;;;2.42;100.00;92221.28;5088522;28;20058;-77
2022/12/04 00:14:37;;;;;;;5.30;2.67;;;;;;;2.39;100.00;92206.28;5058249;28;20035;-77
2022/12/04 00:17:03;;;;;;;4.95;2.10;;;;;;;2.40;100.00;92208.59;5075116;28;20059;-77
2022/12/04 00:19:29;;;;;;;4.57;2.28;;;;;;;2.42;100.00;92205.78;5085658;28;20048;-77
2022/12/04 00:21:54;;;;;;;5.47;2.00;;;;;;;2.42;100.00;92209.13;5085836;28;20036;-77
2022/12/04 00:24:20;;;;;;;2.92;1.73;;;;;;;2.44;100.00;92208.91;5082120;28;20060;-77
2022/12/04 00:26:45;;;;;;;4.05;1.85;;;;;;;2.46;100.00;92209.44;5070645;28;20540;-77
2022/12/04 00:29:12;;;;;;;4.53;1.80;;;;;;;2.48;100.00;92204.81;5074816;28;20032;-77
2022/12/04 00:31:39;;;;;;;2.85;1.42;;;;;;;2.49;100.00;92207.13;5074084;28;20084;-77
2022/12/04 00:34:05;;;;;;;3.25;1.70;;;;;;;2.53;100.00;92196.34;5087168;28;20028;-78
2022/12/04 00:36:30;;;;;;;2.55;1.38;;;;;;;2.52;100.00;92195.53;5089721;28;20046;-77
2022/12/04 00:38:58;;;;;;;3.88;1.50;;;;;;;2.55;100.00;92196.88;5091309;28;20036;-77
2022/12/04 00:41:26;;;;;;;3.58;1.50;;;;;;;2.56;100.00;92196.59;5074581;28;20033;-77
2022/12/04 00:43:52;;;;;;;9.60;2.00;;;;;;;2.54;100.00;92192.72;5080212;28;20025;-77
2022/12/04 00:46:18;;;;;;;4.32;1.95;;;;;;;2.57;100.00;92192.22;5089626;28;20032;-76
2022/12/04 00:48:44;;;;;;;4.40;2.28;;;;;;;2.60;100.00;92194.34;5070618;28;20046;-76
2022/12/04 00:51:14;;;;;;;4.75;2.08;;;;;;;2.60;100.00;92187.34;5071628;28;20024;-77
2022/12/04 00:53:40;;;;;;;4.47;2.00;;;;;;;2.60;100.00;92192.53;5071523;28;20047;-76
2022/12/04 00:56:09;;;;;;;4.00;2.17;;;;;;;2.60;100.00;92184.78;5077426;28;20111;-76
2022/12/04 00:58:35;;;;;;;4.00;2.13;;;;;;;2.60;100.00;92178.81;5071219;28;20559;-76
2022/12/04 01:01:07;;;;;;;4.25;2.10;;;;;;;2.59;100.00;92185.81;5090902;28;20036;-76
2022/12/04 01:03:33;;;;;;;4.82;2.00;;;;;;;2.60;100.00;92171.06;5089652;28;20044;-75
2022/12/04 01:05:59;;;;;;;6.20;2.00;;;;;;;2.60;100.00;92173.66;5086824;28;20069;-77
2022/12/04 01:08:25;;;;;;;4.47;2.03;;;;;;;2.59;100.00;92170.31;5084659;28;20074;-77
2022/12/04 01:10:51;;;;;;;4.50;2.00;;;;;;;2.63;100.00;92173.16;5071187;28;20483;-76
2022/12/04 01:13:17;;;;;;;9.57;1.85;;;;;;;2.67;100.00;92164.66;5071023;28;20032;-77
2022/12/04 01:15:43;;;;;;;146.75;5.50;;;;;;;2.82;100.00;92163.25;5077879;28;20541;-77
2022/12/04 01:18:13;;;;;;;8.30;3.08;;;;;;;2.77;100.00;92171.75;5078201;28;20020;-77
2022/12/04 01:20:39;;;;;;;7.93;2.75;;;;;;;2.71;100.00;92164.97;5106594;28;20043;-76
2022/12/04 01:23:05;;;;;;;417.02;11.70;;;;;;;2.75;100.00;92162.66;5088614;28;20130;-76
2022/12/04 01:25:31;;;;;;;754.45;17.17;;;;;;;2.66;100.00;92163.13;5096795;28;20063;-76
2022/12/04 01:27:56;;;;;;;75.68;3.50;;;;;;;2.52;100.00;92159.34;5087195;28;20028;-76
2022/12/04 01:30:22;;;;;;;245.52;6.25;;;;;;;2.53;100.00;92160.16;5086001;28;20068;-76
2022/12/04 01:32:47;;;;;;;157.13;4.72;;;;;;;2.47;100.00;92160.09;5069928;28;20032;-75
2022/12/04 01:35:13;;;;;;;75.15;3.17;;;;;;;2.42;100.00;92160.06;5061354;28;20068;-78
2022/12/04 01:37:39;;;;;;;9.23;2.58;;;;;;;2.40;100.00;92159.50;5086750;28;20128;-74
2022/12/04 01:40:06;;;;;;;35.88;2.95;;;;;;;2.44;100.00;92157.22;5090032;28;20111;-75
2022/12/04 01:42:32;;;;;;;8.65;2.35;;;;;;;2.45;100.00;92158.78;5082831;28;20073;-76
2022/12/04 01:45:34;;;;;;;3.80;1.80;;;;;;;2.43;100.00;92159.03;5070999;28;20044;-76
2022/12/04 01:48:09;;;;;;;3.22;1.90;;;;;;;2.42;100.00;92164.44;5074033;28;20707;-77
2022/12/04 01:50:35;;;;;;;5.60;3.08;;;;;;;2.42;100.00;92159.28;5069349;28;20046;-76
2022/12/04 01:53:00;;;;;;;7.80;3.75;;;;;;;2.44;100.00;92149.47;5070403;28;20048;-77
2022/12/04 01:55:26;;;;;;;5.72;2.83;;;;;;;2.47;100.00;92148.97;5080548;28;20046;-77
2022/12/04 01:57:52;;;;;;;5.80;2.63;;;;;;;2.49;100.00;92145.13;5084395;28;20047;-77
2022/12/04 02:00:17;;;;;;;5.03;2.03;;;;;;;2.52;100.00;92143.84;5087250;28;20082;-76
2022/12/04 02:02:46;;;;;;;5.22;1.98;;;;;;;2.54;100.00;92141.81;5077908;28;20040;-77
2022/12/04 02:05:15;;;;;;;3.00;1.70;;;;;;;2.57;100.00;92136.16;5076578;28;20040;-76
2022/12/04 02:07:43;;;;;;;4.05;1.83;;;;;;;2.59;100.00;92139.28;5086839;28;20482;-77
2022/12/04 02:10:10;;;;;;;4.53;2.10;;;;;;;2.61;100.00;92137.25;5078539;28;20542;-77
2022/12/04 02:12:45;;;;;;;4.38;1.90;;;;;;;2.64;100.00;92135.97;5074151;28;20081;-77
2022/12/04 02:15:49;;;;;;;3.63;1.80;;;;;;;2.65;100.00;92127.94;5082365;28;20067;-78
2022/12/04 02:18:24;;;;;;;3.45;1.70;;;;;;;2.66;100.00;92126.94;5069968;28;20036;-77
2022/12/04 02:21:00;;;;;;;7.80;1.70;;;;;;;2.65;100.00;92120.19;5085991;28;20047;-77
2022/12/04 02:23:43;;;;;;;3.20;1.58;;;;;;;2.64;100.00;92123.03;5087325;28;20033;-77
2022/12/04 02:26:36;;;;;;;3.88;1.90;;;;;;;2.67;100.00;92125.13;5086342;28;20451;-77
2022/12/04 02:29:04;;;;;;;3.80;1.70;;;;;;;2.67;100.00;92120.72;5086202;28;20092;-77
2022/12/04 02:31:36;;;;;;;3.05;1.60;;;;;;;2.66;100.00;92119.19;5074843;28;20384;-76
2022/12/04 02:34:09;;;;;;;5.70;1.60;;;;;;;2.67;100.00;92115.56;5084063;28;20024;-76
2022/12/04 02:36:44;;;;;;;50.63;3.83;;;;;;;2.66;100.00;92114.03;5084453;28;20035;-76
2022/12/04 02:39:29;;;;;;;5.97;2.00;;;;;;;2.67;100.00;92110.41;5092589;28;20126;-76
2022/12/04 02:41:54;;;;;;;78.80;7.68;;;;;;;2.68;100.00;92114.56;5086866;28;20169;-75
2022/12/04 02:44:26;;;;;;;19.83;4.65;;;;;;;2.75;100.00;92121.31;5092316;28;20533;-75
2022/12/04 02:46:58;;;;;;;7.15;2.97;;;;;;;2.66;100.00;92118.41;5085601;28;20161;-77
2022/12/04 02:49:31;;;;;;;8.32;3.72;;;;;;;2.64;100.00;92117.88;5101940;28;20521;-77
2022/12/04 02:51:58;;;;;;;;;;;;;;;2.63;100.00;92105.97;5092306;28;20036;-77
2022/12/04 02:54:46;;;;;;;8.75;4.43;;;;;;;2.63;100.00;92100.78;5073341;28;19966;-77
2022/12/04 02:57:19;;;;;;;9.82;4.55;;;;;;;2.64;100.00;92107.53;5084168;28;20119;-75
2022/12/04 02:59:47;;;;;;;7.55;3.88;;;;;;;2.65;100.00;92107.28;5084984;28;20201;-77
2022/12/04 03:02:21;;;;;;;6.63;2.95;;;;;;;2.66;100.00;92103.69;5091255;28;20505;-77
2022/12/04 03:04:49;;;;;;;6.32;2.90;;;;;;;2.64;100.00;92104.97;5090237;28;20036;-77
2022/12/04 03:07:26;;;;;;;5.75;2.38;;;;;;;2.61;100.00;92101.06;5074711;28;20035;-77
2022/12/04 03:10:00;;;;;;;4.82;2.38;;;;;;;2.60;100.00;92094.31;5071568;28;20245;-77
2022/12/04 03:12:35;;;;;;;6.10;3.00;;;;;;;2.61;100.00;92092.50;5055835;28;20032;-77
2022/12/04 03:15:23;;;;;;;6.03;2.80;;;;;;;2.62;100.00;92078.56;5077051;28;20076;-77
2022/12/04 03:18:17;;;;;;;6.55;2.88;;;;;;;2.65;100.00;92083.25;5087084;28;20506;-77
2022/12/04 03:20:47;;;;;;;5.68;2.75;;;;;;;2.68;100.00;92080.19;5072720;28;20036;-76
2022/12/04 03:23:33;;;;;;;4.15;1.98;;;;;;;2.71;100.00;92074.50;5072754;28;20039;-76
2022/12/04 03:26:06;;;;;;;3.92;1.80;;;;;;;2.75;100.00;92074.78;5072638;28;20099;-76
2022/12/04 03:28:51;;;;;;;;;;;;;;;2.85;100.00;92064.50;5077534;28;20052;-76
2022/12/04 03:31:26;;;;;;;6.28;2.05;;;;;;;2.86;100.00;92055.72;5070756;28;19999;-77
2022/12/04 03:33:57;;;;;;;2.92;1.60;;;;;;;2.86;100.00;92045.38;5089857;28;20135;-76
2022/12/04 03:36:52;;;;;;;2.78;1.63;;;;;;;2.90;100.00;92046.44;5075778;28;20043;-77
2022/12/04 03:39:29;;;;;;;2.72;1.67;;;;;;;2.97;100.00;92052.16;5102569;28;20058;-77
2022/12/04 03:42:02;;;;;;;8.02;2.78;;;;;;;3.27;100.00;92046.41;5072012;28;20029;-76
2022/12/04 03:44:44;;;;;;;5.32;2.65;;;;;;;3.16;100.00;92044.03;5054187;28;20063;-76
2022/12/04 03:47:13;;;;;;;89.05;3.35;;;;;;;3.07;100.00;92041.91;5072628;28;20197;-77
2022/12/04 03:50:17;;;;;;;4.57;2.53;;;;;;;2.94;100.00;92039.75;5090403;28;20043;-76
2022/12/04 03:52:46;;;;;;;4.28;2.25;;;;;;;2.87;100.00;92036.63;5077539;28;20035;-77
2022/12/04 03:55:14;;;;;;;5.82;2.40;;;;;;;2.84;100.00;92029.38;5090360;28;20040;-76
2022/12/04 03:57:43;;;;;;;4.90;2.75;;;;;;;2.82;100.00;92031.41;5094502;28;20040;-77
2022/12/04 04:00:09;;;;;;;4.75;2.55;;;;;;;2.82;100.00;92031.41;5090667;28;20036;-76
2022/12/04 04:02:56;;;;;;;4.82;2.53;;;;;;;2.80;100.00;92021.31;5090440;28;20039;-75
2022/12/04 04:05:24;;;;;;;5.35;2.90;;;;;;;2.80;100.00;92013.56;5080764;28;20032;-77
2022/12/04 04:07:54;;;;;;;5.38;2.65;;;;;;;2.82;100.00;92018.50;5077075;28;20612;-76
2022/12/04 04:10:25;;;;;;;70.78;2.90;;;;;;;3.12;100.00;92018.63;5079865;28;20539;-77
2022/12/04 04:24:14;;;;;;;8.10;1.60;;;;;;;2.69;100.00;92014.53;5089952;28;20085;-76
2022/12/04 04:26:46;;;;;;;2.78;1.50;;;;;;;2.69;100.00;92015.31;5082042;28;20393;-76
2022/12/04 04:29:12;;;;;;;3.22;1.50;;;;;;;2.71;100.00;92013.25;5089681;28;20035;-77
2022/12/04 04:31:47;;;;;;;3.45;1.67;;;;;;;2.74;100.00;92016.38;5088149;28;20126;-76
2022/12/04 04:34:31;;;;;;;4.63;1.67;;;;;;;2.74;100.00;92022.31;5090330;28;20040;-77
2022/12/04 04:37:10;;;;;;;139.93;3.78;;;;;;;2.79;100.00;92019.78;5081256;28;20389;-77
2022/12/04 04:39:49;;;;;;;4.22;1.20;;;;;;;2.75;100.00;92023.06;5088452;28;20036;-77
2022/12/04 04:42:27;;;;;;;1.95;1.20;;;;;;;2.75;100.00;92028.25;5086114;28;20041;-76
2022/12/04 04:45:07;;;;;;;2.20;1.35;;;;;;;2.71;100.00;92023.59;5089818;28;20039;-76
2022/12/04 04:47:47;;;;;;;2.40;1.55;;;;;;;2.70;100.00;92016.06;5080713;28;20424;-77
2022/12/04 04:50:15;;;;;;;1.35;1.02;;;;;;;2.69;100.00;92014.53;5070801;28;20031;-76
2022/12/04 04:52:46;;;;;;;1.60;1.10;;;;;;;2.71;100.00;92013.25;5068340;28;20079;-76
2022/12/04 04:55:13;;;;;;;7.53;1.70;;;;;;;2.72;100.00;92014.03;5070027;28;20047;-77
2022/12/04 04:57:39;;;;;;;13.48;2.30;;;;;;;2.71;100.00;92010.66;5076101;28;20039;-76
2022/12/04 05:00:10;;;;;;;3.25;1.80;;;;;;;2.66;100.00;92010.63;5081195;28;20024;-77
2022/12/04 05:02:36;;;;;;;4.25;1.80;;;;;;;2.63;100.00;92016.28;5088319;28;20028;-77
2022/12/04 05:05:02;;;;;;;2.83;1.60;;;;;;;2.56;100.00;92002.81;5088838;28;20035;-76
2022/12/04 05:07:28;;;;;;;3.67;1.90;;;;;;;2.54;100.00;92004.84;5087034;28;20098;-76
2022/12/04 05:09:53;;;;;;;3.38;1.77;;;;;;;2.53;100.00;92012.88;5089861;28;20489;-76
2022/12/04 05:12:19;;;;;;;2.92;1.60;;;;;;;2.49;100.00;92010.00;5076816;28;20025;-76
2022/12/04 05:14:47;;;;;;;3.05;1.67;;;;;;;2.51;100.00;92007.94;5071787;28;20085;-76
2022/12/04 05:17:13;;;;;;;3.38;1.80;;;;;;;2.54;100.00;92001.50;5073608;28;20030;-76
2022/12/04 05:19:54;;;;;;;2.47;1.50;;;;;;;2.59;100.00;91997.16;5070719;28;20486;-76
2022/12/04 05:22:21;;;;;;;2.90;1.57;;;;;;;2.75;100.00;91997.22;5054610;28;20135;-76
2022/12/04 05:24:47;;;;;;;3.28;1.50;;;;;;;2.75;100.00;91997.22;5069573;28;20151;-76
2022/12/04 05:27:13;;;;;;;30.50;2.28;;;;;;;2.71;100.00;91997.75;5072602;28;20036;-76
2022/12/04 05:29:38;;;;;;;2.88;1.50;;;;;;;2.66;100.00;91999.53;5105237;28;20390;-76
2022/12/04 05:32:04;;;;;;;1.70;1.20;;;;;;;2.80;100.00;91990.31;5088338;28;20028;-76
2022/12/04 05:34:30;;;;;;;1.80;1.25;;;;;;;2.93;100.00;91994.25;5089747;28;20528;-76
2022/12/04 05:36:56;;;;;;;5.13;1.75;;;;;;;2.83;100.00;91986.44;5076630;28;20048;-75
2022/12/04 05:39:21;;;;;;;14.55;1.70;;;;;;;2.73;100.00;91989.75;5089193;28;20040;-76
2022/12/04 05:41:47;;;;;;;3.58;1.80;;;;;;;2.69;100.00;91994.63;5074062;28;20034;-76
2022/12/04 05:44:12;;;;;;;3.67;1.70;;;;;;;2.67;100.00;91993.31;5076708;28;20040;-76
2022/12/04 05:46:38;;;;;;;2.38;1.58;;;;;;;2.61;100.00;91995.09;5075603;28;20067;-76
2022/12/04 05:49:04;;;;;;;3.05;1.70;;;;;;;2.60;100.00;91993.53;5085795;28;20020;-76
2022/12/04 05:51:30;;;;;;;1.83;1.38;;;;;;;2.57;100.00;91995.81;5074923;28;20096;-76
2022/12/04 05:53:56;;;;;;;1.90;1.30;;;;;;;2.60;100.00;91996.13;5088689;28;20024;-76
2022/12/04 05:56:21;;;;;;;2.83;1.52;;;;;;;2.58;100.00;92003.34;5069333;28;20524;-77
2022/12/04 05:58:47;;;;;;;2.78;1.55;;;;;;;2.59;100.00;91999.75;5070031;28;20043;-77
2022/12/04 06:01:19;;;;;;;2.40;1.40;;;;;;;2.60;100.00;91996.13;5069646;28;20119;-76
2022/12/04 06:03:45;;;;;;;3.83;1.85;;;;;;;2.59;100.00;91989.41;5086117;28;20043;-76
2022/12/04 06:06:23;;;;;;;3.63;1.60;;;;;;;2.62;100.00;91988.91;5078001;28;20055;-77
2022/12/04 06:08:50;;;;;;;2.45;1.30;;;;;;;2.61;100.00;91995.09;5082119;28;20051;-76
2022/12/04 06:11:18;;;;;;;3.22;1.60;;;;;;;2.65;100.00;91990.97;5089325;28;20093;-77
2022/12/04 06:13:45;;;;;;;2.08;1.33;;;;;;;2.60;100.00;91990.19;5085997;28;20047;-76
2022/12/04 06:16:13;;;;;;;1.98;1.30;;;;;;;2.56;100.00;91989.88;5086345;28;20035;-76
2022/12/04 06:18:38;;;;;;;2.10;1.20;;;;;;;2.55;100.00;91988.34;5089959;28;20028;-76
2022/12/04 06:21:04;;;;;;;1.75;1.30;;;;;;;2.54;100.00;91986.78;5092676;28;20058;-76
2022/12/04 06:23:30;;;;;;;2.08;1.30;;;;;;;2.56;100.00;91986.53;5092190;28;20401;-76
2022/12/04 06:25:55;;;;;;;2.97;1.55;;;;;;;2.53;100.00;91985.22;5091654;28;20047;-76
2022/12/04 06:28:21;;;;;;;2.35;1.23;;;;;;;2.54;100.00;91984.19;5072021;28;21740;-76
2022/12/04 06:30:46;;;;;;;1.80;1.25;;;;;;;2.54;100.00;91983.41;5087207;28;20043;-76
2022/12/04 06:33:12;;;;;;;2.35;1.38;;;;;;;2.53;100.00;91980.06;5079800;28;20048;-76
2022/12/04 06:35:37;;;;;;;1.98;1.30;;;;;;;2.53;100.00;91980.06;5090595;28;20028;-76
2022/12/04 06:38:03;;;;;;;1.98;1.20;;;;;;;2.55;100.00;91980.59;5071936;28;20424;-76
2022/12/04 06:40:29;;;;;;;3.85;1.70;;;;;;;2.58;100.00;91980.09;5088959;28;20032;-76
2022/12/04 06:42:54;;;;;;;3.80;2.20;;;;;;;2.61;100.00;91981.38;5092705;28;20036;-76
2022/12/04 06:45:21;;;;;;;3.53;1.90;;;;;;;2.63;100.00;91966.41;5092695;28;20465;-76
2022/12/04 06:47:46;;;;;;;5.43;1.70;;;;;;;2.66;100.00;91968.50;5067888;28;20071;-76
2022/12/04 06:50:12;;;;;;;4.15;2.35;;;;;;;2.68;100.00;91977.56;5080367;28;20067;-76
2022/12/04 06:52:38;;;;;;;3.25;1.80;;;;;;;2.68;100.00;91974.22;5079782;28;20119;-76
2022/12/04 06:55:04;;;;;;;7.55;2.25;;;;;;;2.69;100.00;91979.13;5073318;28;20021;-75
2022/12/04 06:57:29;;;;;;;3.80;2.13;;;;;;;2.75;100.00;91976.56;5063259;28;20047;-77
2022/12/04 06:59:55;;;;;;;17.20;2.40;;;;;;;2.82;100.00;91977.91;5077245;28;20036;-76
2022/12/04 07:02:20;;;;;;;3.83;2.17;;;;;;;2.89;100.00;91980.25;5073634;28;20032;-76
2022/12/04 07:04:46;;;;;;;26.33;3.05;;;;;;;3.00;100.00;91979.28;5091129;28;20421;-76
2022/12/04 07:07:12;;;;;;;110.75;4.20;;;;;;;2.91;100.00;91985.97;5092519;28;20032;-76
2022/12/04 07:09:37;;;;;;;8.52;3.45;;;;;;;2.86;100.00;91988.50;5092363;28;20098;-76
2022/12/04 07:12:03;;;;;;;58.85;4.20;;;;;;;2.82;100.00;91984.88;5090944;28;20044;-76
2022/12/04 07:14:29;;;;;;;8.98;2.97;;;;;;;2.80;100.00;91981.78;5090774;28;20551;-77
2022/12/04 07:16:54;;;;;;;9.40;4.13;;;;;;;2.78;100.00;91976.06;5091852;28;20028;-76
2022/12/04 07:19:20;;;;;;;8.73;4.45;;;;;;;2.76;100.00;91978.13;5075545;28;20048;-76
2022/12/04 07:21:45;;;;;;;7.03;3.90;;;;;;;2.77;100.00;91979.66;5079689;28;20028;-75
2022/12/04 07:24:16;;;;;;;5.68;3.35;;;;;;;2.76;100.00;91978.91;5076997;28;20094;-76
2022/12/04 07:26:42;;;;;;;5.40;2.78;;;;;;;2.80;100.00;91990.31;5074851;28;20042;-76
2022/12/04 07:29:09;;;;;;;3.67;2.08;;;;;;;2.81;100.00;91980.72;5085458;28;20447;-76
2022/12/04 07:31:35;;;;;;;4.40;1.77;;;;;;;2.80;100.00;91979.97;5082730;28;20110;-76
2022/12/04 07:34:01;;;;;;;3.90;2.20;;;;;;;2.85;100.00;91981.78;5091814;28;20156;-76
2022/12/04 07:36:27;;;;;;;6.03;2.90;;;;;;;2.85;100.00;91986.97;5085686;28;20085;-78
2022/12/04 07:38:56;;;;;;;4.25;2.10;;;;;;;2.85;100.00;91985.16;5083897;28;20025;-77
2022/12/04 07:41:22;;;;;;;2.50;1.52;;;;;;;2.87;100.00;91990.84;5083951;28;20032;-77
2022/12/04 07:43:48;;;;;;;5.75;1.70;;;;;;;2.88;100.00;91991.63;5108624;28;20119;-78
2022/12/04 07:46:17;;;;;;;5.30;2.80;;;;;;;2.89;100.00;91993.97;5115965;28;20454;-78
2022/12/04 07:48:44;;;;;;;4.00;2.17;;;;;;;2.91;100.00;91985.97;5111534;28;20028;-77
2022/12/04 07:51:16;;;;;;;3.60;1.60;;;;;;;2.93;100.00;91989.09;5074714;28;20180;-77
2022/12/04 07:53:42;;;;;;;2.15;1.30;;;;;;;2.97;100.00;91992.69;5062732;28;20056;-78
2022/12/04 07:56:09;;;;;;;2.20;1.30;;;;;;;2.95;100.00;91981.84;5085996;28;20130;-78
2022/12/04 07:58:35;;;;;;;2.05;1.20;;;;;;;2.98;100.00;91986.50;5094725;28;20489;-77
2022/12/04 08:01:06;;;;;;;1.20;1.00;;;;;;;3.01;100.00;91991.16;5093021;28;20086;-78
2022/12/04 08:03:32;;;;;;;1.75;1.20;;;;;;;3.02;100.00;91990.16;5091034;28;20036;-78
2022/12/04 08:06:04;;;;;;;3.15;1.20;;;;;;;3.05;100.00;91991.47;5092480;28;20401;-77
2022/12/04 08:08:30;;;;;;;;;;;;;;;3.04;100.00;91992.47;5094515;28;20048;-78
2022/12/04 08:10:56;;;;;;;8.07;4.97;;;;;;;3.04;100.00;91982.13;5081137;28;19981;-77
2022/12/04 08:13:21;;;;;;;5.93;3.58;;;;;;;3.06;100.00;91986.03;5077284;28;20036;-77
2022/12/04 08:15:47;;;;;;;5.78;3.38;;;;;;;3.07;100.00;91981.66;5085850;28;20032;-78
2022/12/04 08:18:13;;;;;;;6.05;3.28;;;;;;;3.07;100.00;91985.00;5091678;28;20505;-77
2022/12/04 08:20:38;;;;;;;4.53;2.30;;;;;;;3.10;100.00;91989.66;5090799;28;20101;-78
2022/12/04 08:23:04;;;;;;;5.40;3.03;;;;;;;3.11;100.00;92001.56;5081538;28;20059;-77
2022/12/04 08:25:29;;;;;;;6.28;3.22;;;;;;;3.13;100.00;92001.34;5081984;28;20036;-76
2022/12/04 08:27:55;;;;;;;283.25;8.50;;;;;;;3.08;100.00;92004.66;5072383;28;20028;-76
2022/12/04 08:30:21;;;;;;;50.55;4.35;;;;;;;3.10;100.00;92000.00;5075902;28;20072;-77
2022/12/04 08:32:47;;;;;;;34.25;4.55;;;;;;;3.08;100.00;91999.47;5084104;28;20041;-77
2022/12/04 08:35:13;;;;;;;14.85;4.70;;;;;;;3.07;100.00;91999.75;5087501;28;20320;-77
2022/12/04 08:37:38;;;;;;;11.45;5.53;;;;;;;3.07;100.00;91992.75;5086464;28;20036;-76
2022/12/04 08:40:05;;;;;;;12.32;5.43;;;;;;;3.08;100.00;91998.72;5087605;28;20036;-76
2022/12/04 08:42:31;;;;;;;12.15;5.88;;;;;;;3.10;100.00;92000.00;5086505;28;20036;-75
2022/12/04 08:44:56;;;;;;;13.27;7.38;;;;;;;3.14;100.00;92002.88;5088312;28;20402;-76
2022/12/04 08:47:22;;;;;;;10.48;6.15;;;;;;;3.16;100.00;92008.56;5065996;28;20032;-77
2022/12/04 08:49:47;;;;;;;6.85;3.67;;;;;;;3.18;100.00;92010.94;5087571;28;20024;-77
2022/12/04 08:52:13;;;;;;;4.53;2.60;;;;;;;3.21;100.00;92006.00;5084892;28;20065;-77
2022/12/04 08:54:39;;;;;;;4.47;2.03;;;;;;;3.24;100.00;92012.47;5087964;28;20413;-76
2022/12/04 08:57:04;;;;;;;4.25;2.35;;;;;;;3.27;100.00;92009.41;5093335;28;20054;-76
2022/12/04 08:59:30;;;;;;;6.72;3.20;;;;;;;3.28;100.00;92009.13;5059000;28;20040;-76
2022/12/04 09:01:55;;;;;;;4.82;2.38;;;;;;;3.27;100.00;92017.94;5071513;28;20087;-76
2022/12/04 09:04:21;;;;;;;4.00;2.10;;;;;;;3.31;100.00;92015.59;5083455;28;20043;-76
2022/12/04 09:06:46;;;;;;;4.38;2.60;;;;;;;3.31;100.00;92015.59;5070849;28;20395;-76
2022/12/04 09:09:12;;;;;;;3.70;2.15;;;;;;;3.33;100.00;92024.69;5064436;28;20032;-77
2022/12/04 09:11:38;;;;;;;5.72;2.55;;;;;;;3.35;100.00;92021.84;5088338;28;20537;-78
2022/12/04 09:14:03;;;;;;;4.78;2.75;;;;;;;3.38;100.00;92029.13;5087989;28;20118;-77
2022/12/04 09:16:29;;;;;;;4.60;2.70;;;;;;;3.38;100.00;92030.91;5078548;28;20028;-77
2022/12/04 09:18:56;;;;;;;5.53;2.90;;;;;;;3.39;100.00;92033.25;5083909;28;20035;-76
2022/12/04 09:21:23;;;;;;;5.10;1.90;;;;;;;3.39;100.00;92035.06;5101312;27;20525;-77
2022/12/04 09:23:49;;;;;;;6.63;3.25;;;;;;;3.41;100.00;92036.38;5079484;28;20124;-76
2022/12/04 09:26:27;;;;;;;9.82;6.07;;;;;;;3.41;100.00;92040.78;5080760;28;20123;-76
2022/12/04 09:28:54;;;;;;;9.52;6.03;;;;;;;3.38;100.00;92042.06;5088395;28;20070;-77
2022/12/04 09:31:20;;;;;;;11.77;5.82;;;;;;;3.38;100.00;92046.44;5083662;28;20042;-76
2022/12/04 09:33:46;;;;;;;13.20;5.63;;;;;;;3.41;100.00;92051.88;5086720;28;20051;-77
2022/12/04 09:36:14;;;;;;;7.80;2.80;;;;;;;3.40;100.00;92058.09;5085265;28;20074;-77
2022/12/04 09:38:45;;;;;;;9.30;3.30;;;;;;;3.43;100.00;92052.41;5076526;28;20415;-77
2022/12/04 09:41:26;;;;;;;5.20;2.38;;;;;;;3.43;100.00;92055.00;5076259;28;20028;-77
2022/12/04 09:44:09;;;;;;;22.13;6.20;;;;;;;3.42;100.00;92052.66;5077848;28;20044;-77
2022/12/04 09:46:39;;;;;;;16.48;5.20;;;;;;;3.38;100.00;92060.16;5082797;28;20031;-77
2022/12/04 09:49:18;;;;;;;13.18;4.18;;;;;;;3.38;100.00;92067.13;5073155;28;20040;-77
2022/12/04 09:51:44;;;;;;;5.80;2.30;;;;;;;3.38;100.00;92060.16;5098398;28;20119;-77
2022/12/04 09:54:14;;;;;;;6.78;2.80;;;;;;;3.37;100.00;92074.13;5087427;28;20039;-76
2022/12/04 09:56:43;;;;;;;1.60;1.10;;;;;;;3.41;100.00;92072.59;5069644;28;20039;-77
2022/12/04 09:59:23;;;;;;;2.85;1.40;;;;;;;3.37;100.00;92076.69;5082904;28;20027;-77
2022/12/04 10:02:10;;;;;;;4.18;1.73;;;;;;;3.32;100.00;92081.88;5086868;28;20043;-77
2022/12/04 10:04:36;;;;;;;3.30;1.50;;;;;;;3.34;100.00;92074.63;5070591;28;20120;-77
2022/12/04 10:07:15;;;;;;;2.17;1.10;;;;;;;3.33;100.00;92080.81;5079379;28;20446;-77
2022/12/04 10:09:53;;;;;;;2.78;1.63;;;;;;;3.31;100.00;92080.28;5083925;28;20032;-77
2022/12/04 10:12:41;;;;;;;3.80;1.67;;;;;;;3.27;100.00;92080.03;5085045;28;20150;-75
2022/12/04 10:15:29;;;;;;;2.60;1.30;;;;;;;3.26;100.00;92086.22;5084740;28;20028;-76
2022/12/04 10:18:19;;;;;;;2.97;1.60;;;;;;;3.24;100.00;92095.25;5077903;28;20137;-77
2022/12/04 10:20:54;;;;;;;1.42;1.02;;;;;;;3.42;100.00;92089.66;5085219;28;20035;-76
2022/12/04 10:23:50;;;;;;;1.42;1.02;;;;;;;3.27;100.00;92094.78;5085273;28;20486;-77
2022/12/04 10:26:20;;;;;;;2.92;1.60;;;;;;;3.22;100.00;92092.13;5083510;28;20069;-77
2022/12/04 10:29:00;;;;;;;1.63;1.10;;;;;;;3.19;100.00;92103.00;5083432;28;20028;-77
2022/12/04 10:31:28;;;;;;;1.63;1.15;;;;;;;3.18;100.00;92093.69;5087414;28;20107;-77
2022/12/04 10:34:00;;;;;;;2.47;1.50;;;;;;;3.19;100.00;92092.66;5080229;28;20558;-77
2022/12/04 10:36:33;;;;;;;6.97;3.05;;;;;;;3.18;100.00;92109.22;5087552;28;20047;-77
2022/12/04 10:39:09;;;;;;;2.92;1.65;;;;;;;3.17;100.00;92107.63;5087807;28;20113;-77
2022/12/04 10:41:53;;;;;;;3.95;2.03;;;;;;;3.17;100.00;92099.88;5079324;28;20032;-77
2022/12/04 10:44:19;;;;;;;3.13;1.67;;;;;;;3.16;100.00;92090.56;5087480;28;20110;-77
2022/12/04 10:46:45;;;;;;;3.83;1.65;;;;;;;3.17;100.00;92087.72;5086898;28;20031;-77
2022/12/04 10:49:18;;;;;;;32.38;10.25;;;;;;;3.18;100.00;92089.28;5088994;28;20044;-77
2022/12/04 10:51:44;;;;;;;8.55;4.05;;;;;;;3.18;100.00;92096.28;5089274;28;20102;-77
2022/12/04 10:54:38;;;;;;;5.57;2.92;;;;;;;3.18;100.00;92096.28;5092879;28;20043;-78
2022/12/04 10:57:09;;;;;;;8.55;4.93;;;;;;;3.19;100.00;92087.47;5092537;28;20356;-77
2022/12/04 10:59:49;;;;;;;7.25;4.10;;;;;;;3.16;100.00;92091.34;5090231;28;20482;-78
2022/12/04 11:02:28;;;;;;;6.75;3.10;;;;;;;3.17;100.00;92094.72;5085239;28;20393;-78
2022/12/04 11:04:59;;;;;;;3.90;2.40;;;;;;;3.16;100.00;92100.91;5092526;28;20085;-78
2022/12/04 11:07:28;;;;;;;3.38;2.00;;;;;;;3.13;100.00;92100.38;5083219;28;20332;-78
2022/12/04 11:10:05;;;;;;;4.13;1.80;;;;;;;3.13;100.00;92100.38;5095357;28;20094;-78
2022/12/04 11:12:31;;;;;;;3.33;1.90;;;;;;;3.14;100.00;92103.75;5094481;28;20459;-79
2022/12/04 11:15:06;;;;;;;4.82;2.65;;;;;;;3.14;100.00;92093.41;5091872;28;20036;-78
2022/12/04 11:17:32;;;;;;;6.13;2.78;;;;;;;3.09;100.00;92096.75;5075881;28;20028;-78
2022/12/04 11:20:04;;;;;;;4.20;2.15;;;;;;;3.07;100.00;92096.22;5088807;28;20046;-79
2022/12/04 11:22:30;;;;;;;4.00;1.98;;;;;;;3.04;100.00;92096.72;5096137;28;20036;-79
2022/12/04 11:24:59;;;;;;;4.28;1.90;;;;;;;3.04;100.00;92099.31;5089330;28;20044;-78
2022/12/04 11:27:31;;;;;;;4.95;2.75;;;;;;;3.18;100.00;92098.88;5077940;28;20040;-78
2022/12/04 11:30:01;;;;;;;7.68;3.42;;;;;;;3.10;100.00;92108.63;5072460;28;20118;-79
2022/12/04 11:32:32;;;;;;;5.75;3.20;;;;;;;3.02;100.00;92100.59;5098307;28;20051;-80
2022/12/04 11:35:04;;;;;;;2.67;1.50;;;;;;;2.87;100.00;92101.25;5096230;28;20036;-78
2022/12/04 11:37:33;;;;;;;7.38;3.80;;;;;;;2.86;100.00;92110.00;5099436;28;20092;-78
2022/12/04 11:39:59;;;;;;;6.00;3.13;;;;;;;2.97;100.00;92106.47;5095781;28;20374;-77
2022/12/04 11:42:28;;;;;;;5.53;2.70;;;;;;;2.97;100.00;92103.88;5095554;28;20474;-78
2022/12/04 11:44:58;;;;;;;4.07;2.10;;;;;;;2.87;100.00;92107.19;5087547;28;20530;-78
2022/12/04 11:47:31;;;;;;;4.80;2.33;;;;;;;2.77;100.00;92101.97;5087475;28;20424;-78
2022/12/04 11:50:10;;;;;;;5.18;3.03;;;;;;;2.80;100.00;92096.28;5092733;28;20481;-77
2022/12/04 11:53:01;;;;;;;6.13;3.10;;;;;;;2.78;100.00;92107.91;5089132;28;20151;-77
2022/12/04 11:55:40;;;;;;;5.07;2.55;;;;;;;2.70;100.00;92102.16;5077641;28;20032;-77